Time;durP1;ratioP1;P1;durP2;ratioP2;P2;SDS_P1;SDS_P2;PMS_P1;PMS_P2;Temp;Humidity;BMP_temperature;BMP_pressure;BME280_temperature;BME280_humidity;BME280_pressure;Samples;Min_cycle;Max_cycle;Signal;HPM_P1;HPM_P2
2023/11/14 00:00:04;;;;;;;9.25;6.97;;;5.30;99.90;;;;;;5037773;28;20045;-77
2023/11/14 00:02:30;;;;;;;8.13;6.30;;;5.20;99.90;;;;;;4971084;28;20408;-76
2023/11/14 00:04:55;;;;;;;9.32;6.50;;;5.30;99.90;;;;;;5037755;28;20026;-77
2023/11/14 00:07:21;;;;;;;9.95;6.68;;;5.20;99.90;;;;;;4970872;28;20076;-77
2023/11/14 00:09:47;;;;;;;8.30;6.80;;;5.20;99.90;;;;;;5037700;28;20072;-76
2023/11/14 00:12:14;;;;;;;9.75;6.45;;;5.30;99.90;;;;;;5036382;28;20015;-80
2023/11/14 00:14:44;;;;;;;8.00;6.90;;;5.30;99.90;;;;;;4970776;28;20488;-81
2023/11/14 00:17:10;;;;;;;12.70;7.93;;;5.30;99.90;;;;;;5037101;28;20019;-76
2023/11/14 00:19:35;;;;;;;15.07;7.85;;;5.30;99.90;;;;;;5037416;28;20088;-81
2023/11/14 00:22:01;;;;;;;14.45;10.10;;;5.30;99.90;;;;;;4970693;28;20118;-81
2023/11/14 00:24:28;;;;;;;14.15;10.10;;;5.30;99.90;;;;;;4971004;28;20053;-81
2023/11/14 00:26:56;;;;;;;17.75;10.43;;;5.20;99.90;;;;;;5033782;28;20023;-77
2023/11/14 00:29:22;;;;;;;18.85;9.48;;;5.20;99.90;;;;;;4961991;28;20027;-77
2023/11/14 00:31:47;;;;;;;12.18;8.82;;;5.20;99.90;;;;;;4970492;28;20496;-81
2023/11/14 00:34:14;;;;;;;16.08;9.25;;;5.20;99.90;;;;;;5037350;28;20031;-77
2023/11/14 00:36:41;;;;;;;13.98;8.32;;;5.10;99.90;;;;;;5037140;28;20034;-81
2023/11/14 00:39:09;;;;;;;16.35;10.23;;;5.10;99.90;;;;;;5037111;28;20038;-81
2023/11/14 00:41:35;;;;;;;14.07;8.90;;;5.10;99.90;;;;;;5037170;28;20405;-81
2023/11/14 00:44:02;;;;;;;15.48;10.10;;;5.10;99.90;;;;;;4970631;28;20015;-80
2023/11/14 00:46:28;;;;;;;13.05;8.73;;;5.10;99.90;;;;;;4970349;28;20019;-77
2023/11/14 00:48:54;;;;;;;12.95;8.75;;;5.10;99.90;;;;;;5037368;28;20523;-81
2023/11/14 00:51:20;;;;;;;14.02;9.35;;;5.00;99.90;;;;;;4970416;28;20023;-80
2023/11/14 00:53:45;;;;;;;13.73;8.23;;;5.00;99.90;;;;;;5037373;28;20030;-81
2023/11/14 00:56:11;;;;;;;14.82;10.23;;;5.00;99.90;;;;;;5039847;28;20026;-81
2023/11/14 00:58:38;;;;;;;15.07;10.57;;;5.00;99.90;;;;;;4974058;28;20023;-77
2023/11/14 01:01:04;;;;;;;18.40;12.13;;;5.00;99.90;;;;;;5040463;28;20027;-77
2023/11/14 01:03:30;;;;;;;18.45;10.57;;;5.00;99.90;;;;;;4973737;28;20134;-81
2023/11/14 01:05:55;;;;;;;17.27;10.43;;;5.00;99.90;;;;;;4973491;28;20089;-77
2023/11/14 01:08:21;;;;;;;18.23;11.23;;;5.00;99.90;;;;;;5040960;28;20051;-77
2023/11/14 01:10:47;;;;;;;15.30;10.55;;;5.00;99.90;;;;;;5040332;28;20023;-77
2023/11/14 01:13:13;;;;;;;19.75;11.35;;;5.00;99.90;;;;;;5040510;28;20031;-77
2023/11/14 01:15:40;;;;;;;15.23;11.30;;;5.00;99.90;;;;;;5040340;28;20053;-81
2023/11/14 01:18:06;;;;;;;19.52;11.68;;;5.00;99.90;;;;;;5040627;28;20038;-81
2023/11/14 01:20:32;;;;;;;16.58;10.52;;;5.00;99.90;;;;;;5040101;28;20408;-80
2023/11/14 01:22:57;;;;;;;16.15;10.02;;;5.00;99.90;;;;;;4973461;28;20055;-80
2023/11/14 01:25:23;;;;;;;16.92;10.05;;;5.00;99.90;;;;;;4971726;28;20030;-81
2023/11/14 01:27:49;;;;;;;16.40;11.23;;;5.10;99.90;;;;;;5040224;28;20113;-77
2023/11/14 01:30:15;;;;;;;18.75;10.43;;;5.10;99.90;;;;;;5056574;28;20387;-77
2023/11/14 01:32:40;;;;;;;16.40;9.20;;;5.10;99.90;;;;;;5040336;28;20514;-77
2023/11/14 01:35:06;;;;;;;13.93;9.10;;;5.10;99.90;;;;;;5040250;28;20496;-76
2023/11/14 01:37:32;;;;;;;13.85;9.73;;;5.10;99.90;;;;;;4973286;28;20034;-76
2023/11/14 01:39:58;;;;;;;16.55;9.63;;;5.10;99.90;;;;;;5040164;28;20031;-76
2023/11/14 01:42:24;;;;;;;15.20;9.73;;;5.20;99.90;;;;;;5039533;28;20029;-76
2023/11/14 01:44:50;;;;;;;14.50;8.77;;;5.20;99.90;;;;;;4972968;28;20532;-76
2023/11/14 01:47:16;;;;;;;12.18;8.00;;;5.20;99.90;;;;;;5039964;28;20026;-77
2023/11/14 01:49:42;;;;;;;10.15;7.82;;;5.20;99.90;;;;;;4972978;28;20380;-77
2023/11/14 01:52:10;;;;;;;11.25;7.97;;;5.10;99.90;;;;;;4972959;28;20023;-76
2023/11/14 01:54:37;;;;;;;12.32;8.70;;;5.20;99.90;;;;;;4972694;28;20518;-76
2023/11/14 01:57:04;;;;;;;12.80;8.48;;;5.20;99.90;;;;;;4973082;28;20427;-76
2023/11/14 01:59:30;;;;;;;9.80;7.28;;;5.20;99.90;;;;;;4972852;28;20034;-81
2023/11/14 02:01:57;;;;;;;12.45;7.38;;;5.20;99.90;;;;;;5052312;28;20064;-77
2023/11/14 02:04:26;;;;;;;12.40;7.70;;;5.20;99.90;;;;;;5053741;28;20112;-77
2023/11/14 02:06:52;;;;;;;11.25;7.97;;;5.20;99.90;;;;;;5053041;28;20025;-76
2023/11/14 02:09:18;;;;;;;13.07;8.80;;;5.20;99.90;;;;;;5053393;28;20455;-76
2023/11/14 02:11:45;;;;;;;11.15;6.80;;;5.20;99.90;;;;;;5052329;28;20483;-80
2023/11/14 02:14:11;;;;;;;11.27;7.43;;;5.20;99.90;;;;;;5053232;28;20364;-81
2023/11/14 02:16:56;;;;;;;8.60;6.95;;;5.20;99.90;;;;;;5054194;28;20029;-77
2023/11/14 02:19:22;;;;;;;11.27;7.47;;;5.30;99.90;;;;;;5053048;28;20044;-77
2023/11/14 02:21:48;;;;;;;12.25;7.07;;;5.30;99.90;;;;;;5052871;28;20446;-77
2023/11/14 02:24:24;;;;;;;9.73;6.30;;;5.30;99.90;;;;;;5052929;28;20406;-81
2023/11/14 02:26:50;;;;;;;10.93;7.03;;;5.30;99.90;;;;;;5042782;28;20063;-80
2023/11/14 02:29:19;;;;;;;8.25;6.03;;;5.30;99.90;;;;;;5051314;28;20029;-76
2023/11/14 02:31:46;;;;;;;7.30;5.30;;;5.30;99.90;;;;;;5052803;28;20368;-81
2023/11/14 02:34:12;;;;;;;8.77;6.53;;;5.40;99.90;;;;;;5052734;28;20017;-77
2023/11/14 02:36:37;;;;;;;5.72;5.07;;;5.40;99.90;;;;;;5053871;28;20024;-82
2023/11/14 02:39:04;;;;;;;8.73;6.05;;;5.50;99.90;;;;;;5054026;28;20013;-83
2023/11/14 02:41:30;;;;;;;7.40;6.05;;;5.50;99.90;;;;;;5052410;28;20017;-77
2023/11/14 02:43:57;;;;;;;8.50;6.13;;;5.60;99.90;;;;;;5069466;28;20075;-82
2023/11/14 02:46:23;;;;;;;7.47;6.18;;;5.60;99.90;;;;;;5053869;28;20100;-82
2023/11/14 02:48:49;;;;;;;9.38;6.13;;;5.70;99.90;;;;;;5053795;28;20538;-77
2023/11/14 02:51:15;;;;;;;8.57;6.28;;;5.70;99.90;;;;;;5049163;28;20017;-82
2023/11/14 02:53:41;;;;;;;8.52;5.88;;;5.70;99.90;;;;;;5047099;28;20018;-77
2023/11/14 02:56:07;;;;;;;8.60;6.55;;;5.80;99.90;;;;;;5055916;28;20017;-82
2023/11/14 02:58:33;;;;;;;9.95;6.63;;;5.90;99.90;;;;;;5053778;28;20074;-82
2023/11/14 03:00:58;;;;;;;10.27;7.35;;;5.90;99.90;;;;;;5052226;28;20445;-81
2023/11/14 03:03:24;;;;;;;13.85;8.13;;;5.90;99.90;;;;;;5051803;28;20865;-77
2023/11/14 03:05:49;;;;;;;9.02;7.22;;;6.00;99.90;;;;;;5051915;28;20029;-82
2023/11/14 03:08:15;;;;;;;11.50;8.00;;;6.00;99.90;;;;;;5053430;28;20508;-77
2023/11/14 03:10:42;;;;;;;9.90;7.82;;;6.10;99.90;;;;;;5052137;28;20033;-76
2023/11/14 03:13:09;;;;;;;11.77;8.48;;;6.10;99.90;;;;;;5053329;28;20021;-82
2023/11/14 03:15:35;;;;;;;11.20;9.20;;;6.10;99.90;;;;;;5043477;28;20410;-77
2023/11/14 03:18:01;;;;;;;11.77;8.40;;;6.10;99.90;;;;;;5034797;28;20025;-77
2023/11/14 03:20:27;;;;;;;11.52;9.07;;;6.10;99.90;;;;;;5051819;28;20025;-77
2023/11/14 03:22:54;;;;;;;13.95;9.25;;;6.20;99.90;;;;;;5051826;28;20386;-77
2023/11/14 03:25:21;;;;;;;12.00;8.57;;;6.20;99.90;;;;;;5053210;28;20025;-77
2023/11/14 03:27:47;;;;;;;14.32;9.68;;;6.20;99.90;;;;;;5052891;28;20386;-81
2023/11/14 03:30:13;;;;;;;12.07;9.10;;;6.20;99.90;;;;;;5053184;28;20024;-82
2023/11/14 03:32:39;;;;;;;11.85;8.30;;;6.30;99.90;;;;;;5051593;28;20021;-77
2023/11/14 03:35:06;;;;;;;11.30;9.10;;;6.30;99.90;;;;;;5068557;28;20078;-81
2023/11/14 03:37:32;;;;;;;13.50;9.60;;;6.30;99.90;;;;;;5052792;28;20374;-77
2023/11/14 03:39:58;;;;;;;15.20;9.60;;;6.30;99.90;;;;;;5053017;28;20041;-81
2023/11/14 03:42:23;;;;;;;17.60;12.13;;;6.30;99.90;;;;;;5052269;28;20120;-81
2023/11/14 03:44:49;;;;;;;28.17;15.40;;;6.30;99.90;;;;;;5051531;28;20067;-82
2023/11/14 03:47:15;;;;;;;30.40;16.52;;;6.40;99.90;;;;;;5052811;28;20438;-82
2023/11/14 03:49:41;;;;;;;29.95;16.70;;;6.30;99.90;;;;;;5051273;28;20025;-77
2023/11/14 03:52:07;;;;;;;26.60;15.88;;;6.40;99.90;;;;;;5051329;28;20390;-83
2023/11/14 03:54:33;;;;;;;15.85;11.68;;;6.40;99.90;;;;;;5052731;28;20021;-77
2023/11/14 03:56:59;;;;;;;16.60;11.60;;;6.30;99.90;;;;;;5052654;28;20079;-82
2023/11/14 03:59:25;;;;;;;15.52;10.45;;;6.40;99.90;;;;;;5064202;28;20434;-82
2023/11/14 04:01:50;;;;;;;18.75;11.85;;;6.30;99.90;;;;;;5021509;28;20082;-82
2023/11/14 04:04:16;;;;;;;17.38;10.98;;;6.40;99.90;;;;;;5037156;28;20053;-82
2023/11/14 04:06:43;;;;;;;20.13;12.57;;;6.40;99.90;;;;;;4971091;28;20396;-77
2023/11/14 04:09:10;;;;;;;18.40;13.32;;;6.40;99.90;;;;;;5050193;28;20120;-81
2023/11/14 04:11:45;;;;;;;16.35;11.48;;;6.40;99.90;;;;;;5051058;28;20473;-82
2023/11/14 04:14:10;;;;;;;19.60;12.95;;;6.40;99.90;;;;;;4971216;28;20515;-82
2023/11/14 04:16:36;;;;;;;19.40;13.38;;;6.40;99.90;;;;;;4970801;28;20023;-82
2023/11/14 04:19:02;;;;;;;20.13;13.07;;;6.40;99.90;;;;;;4970940;28;20027;-77
2023/11/14 04:21:28;;;;;;;18.25;12.88;;;6.40;99.90;;;;;;5037255;28;20030;-76
2023/11/14 04:23:53;;;;;;;15.52;12.88;;;6.30;99.90;;;;;;4970961;28;20023;-77
2023/11/14 04:26:19;;;;;;;19.60;13.63;;;6.30;99.90;;;;;;5037037;28;20015;-77
2023/11/14 04:28:45;;;;;;;19.58;13.90;;;6.30;99.90;;;;;;5037372;28;20023;-82
2023/11/14 04:31:10;;;;;;;17.77;12.75;;;6.40;99.90;;;;;;4973116;28;20080;-82
2023/11/14 04:33:36;;;;;;;18.38;11.40;;;6.30;99.90;;;;;;5041298;28;20072;-82
2023/11/14 04:36:02;;;;;;;17.10;12.20;;;6.30;99.90;;;;;;4973953;28;20027;-77
2023/11/14 04:38:27;;;;;;;15.07;11.65;;;6.30;99.90;;;;;;5041591;28;20101;-82
2023/11/14 04:40:53;;;;;;;19.42;13.48;;;6.30;99.90;;;;;;5041030;28;20058;-77
2023/11/14 04:43:19;;;;;;;20.92;12.35;;;6.30;99.90;;;;;;5041248;28;20030;-77
2023/11/14 04:45:45;;;;;;;21.40;12.27;;;6.30;99.90;;;;;;4973853;28;20027;-82
2023/11/14 04:48:13;;;;;;;14.98;10.30;;;6.30;99.90;;;;;;5041218;28;20488;-82
2023/11/14 04:50:39;;;;;;;17.25;11.52;;;6.30;99.90;;;;;;4973959;28;20034;-82
2023/11/14 04:53:05;;;;;;;17.00;11.98;;;6.30;99.90;;;;;;4974115;28;20023;-77
2023/11/14 04:55:30;;;;;;;15.30;10.73;;;6.30;99.90;;;;;;4973718;28;20019;-82
2023/11/14 04:57:56;;;;;;;18.65;10.50;;;6.30;99.90;;;;;;4973909;28;20497;-82
2023/11/14 05:00:21;;;;;;;14.00;9.68;;;6.30;99.90;;;;;;5040710;28;20100;-82
2023/11/14 05:02:47;;;;;;;14.00;10.38;;;6.30;99.90;;;;;;5040879;28;20525;-77
2023/11/14 05:05:13;;;;;;;15.10;10.48;;;6.30;99.90;;;;;;5040715;28;20031;-82
2023/11/14 05:07:41;;;;;;;20.05;12.18;;;6.30;99.90;;;;;;4973637;28;20031;-77
2023/11/14 05:10:08;;;;;;;20.90;11.73;;;6.40;99.90;;;;;;5040609;28;20045;-79
2023/11/14 05:12:34;;;;;;;24.15;13.15;;;6.30;99.90;;;;;;5040439;28;20430;-77
2023/11/14 05:15:00;;;;;;;23.67;14.75;;;6.40;99.90;;;;;;5039732;28;20023;-78
2023/11/14 05:17:25;;;;;;;24.48;14.90;;;6.40;99.90;;;;;;4973511;28;20027;-83
2023/11/14 05:19:51;;;;;;;28.25;16.02;;;6.40;99.90;;;;;;4973468;28;20453;-83
2023/11/14 05:22:17;;;;;;;29.15;15.02;;;6.40;99.90;;;;;;4973479;28;20015;-83
2023/11/14 05:24:43;;;;;;;25.63;14.93;;;6.40;99.90;;;;;;5040146;28;20023;-83
2023/11/14 05:27:09;;;;;;;24.98;14.55;;;6.40;99.90;;;;;;5040445;28;20481;-82
2023/11/14 05:29:35;;;;;;;27.73;15.43;;;6.40;99.90;;;;;;4973284;28;20019;-76
2023/11/14 05:32:02;;;;;;;27.45;17.42;;;6.40;99.90;;;;;;5040170;28;20617;-77
2023/11/14 05:34:28;;;;;;;27.50;16.33;;;6.40;99.90;;;;;;5040190;28;20054;-77
2023/11/14 05:36:53;;;;;;;34.70;20.02;;;6.40;99.90;;;;;;4970449;28;20050;-77
2023/11/14 05:39:20;;;;;;;34.13;19.80;;;6.50;99.90;;;;;;5038497;28;20065;-77
2023/11/14 05:41:45;;;;;;;32.22;17.38;;;6.50;99.90;;;;;;4972686;28;20030;-77
2023/11/14 05:44:11;;;;;;;30.63;16.40;;;6.40;99.90;;;;;;5039615;28;20030;-76
2023/11/14 05:46:37;;;;;;;27.05;16.00;;;6.50;99.90;;;;;;4972945;28;20499;-77
2023/11/14 05:49:02;;;;;;;25.83;13.30;;;6.50;99.90;;;;;;4972649;28;20083;-77
2023/11/14 05:51:28;;;;;;;19.38;12.98;;;6.50;99.90;;;;;;4972819;28;20125;-82
2023/11/14 05:53:54;;;;;;;22.52;13.38;;;6.50;99.90;;;;;;4971817;28;20035;-82
2023/11/14 05:56:20;;;;;;;21.25;12.30;;;6.50;99.90;;;;;;5030935;28;20030;-82
2023/11/14 05:58:46;;;;;;;24.98;14.18;;;6.60;99.90;;;;;;4972641;28;20031;-82
2023/11/14 06:01:12;;;;;;;24.60;13.38;;;6.60;99.90;;;;;;5038960;28;20034;-82
2023/11/14 06:03:38;;;;;;;21.90;12.10;;;6.60;99.90;;;;;;5039149;28;20494;-77
2023/11/14 06:06:04;;;;;;;19.17;10.80;;;6.60;99.90;;;;;;5038661;28;20514;-77
2023/11/14 06:08:30;;;;;;;17.88;10.57;;;6.60;99.90;;;;;;4971916;28;20031;-77
2023/11/14 06:10:57;;;;;;;22.35;11.23;;;6.70;99.90;;;;;;5038828;28;20362;-83
2023/11/14 06:13:22;;;;;;;17.58;10.20;;;6.70;99.90;;;;;;4972413;28;20105;-76
2023/11/14 06:15:48;;;;;;;13.25;9.00;;;6.70;99.90;;;;;;4972286;28;20022;-76
2023/11/14 06:18:13;;;;;;;19.50;10.43;;;6.80;99.90;;;;;;4972747;28;20049;-82
2023/11/14 06:20:40;;;;;;;16.17;9.65;;;6.80;99.90;;;;;;4972341;28;20031;-76
2023/11/14 06:23:05;;;;;;;12.60;8.02;;;6.80;99.90;;;;;;5039396;28;20064;-81
2023/11/14 06:25:31;;;;;;;15.10;8.68;;;6.80;99.90;;;;;;5039291;28;20023;-82
2023/11/14 06:27:57;;;;;;;16.25;9.27;;;6.80;99.90;;;;;;5039510;28;20015;-82
2023/11/14 06:30:23;;;;;;;17.92;11.23;;;6.80;99.90;;;;;;4972404;28;20026;-82
2023/11/14 06:32:49;;;;;;;23.25;12.27;;;6.80;99.90;;;;;;5037300;28;20388;-77
2023/11/14 06:35:15;;;;;;;28.85;14.40;;;6.90;99.90;;;;;;5053888;28;20383;-76
2023/11/14 06:37:42;;;;;;;24.40;13.18;;;6.90;99.90;;;;;;5036657;28;20643;-77
2023/11/14 06:40:08;;;;;;;27.70;15.52;;;6.90;99.90;;;;;;5037105;28;20073;-76
2023/11/14 06:42:34;;;;;;;33.38;18.88;;;6.90;99.90;;;;;;4970160;28;20031;-76
2023/11/14 06:45:00;;;;;;;31.65;17.80;;;6.90;99.90;;;;;;5036926;28;20030;-83
2023/11/14 06:47:28;;;;;;;30.95;17.30;;;7.00;99.90;;;;;;5034480;28;20542;-77
2023/11/14 06:49:54;;;;;;;28.58;17.30;;;7.00;99.90;;;;;;5018460;28;20019;-76
2023/11/14 06:52:19;;;;;;;31.30;17.42;;;7.00;99.90;;;;;;4970098;28;20022;-76
2023/11/14 06:54:45;;;;;;;27.77;17.35;;;7.10;99.90;;;;;;5033288;28;20023;-76
2023/11/14 06:57:11;;;;;;;21.63;15.02;;;7.10;99.90;;;;;;5038030;28;20026;-82
2023/11/14 06:59:36;;;;;;;20.27;13.52;;;7.20;99.90;;;;;;4972042;28;20058;-82
2023/11/14 07:02:05;;;;;;;23.70;18.23;;;7.20;99.90;;;;;;4971650;28;20057;-77
2023/11/14 07:04:33;;;;;;;17.38;11.23;;;7.30;99.90;;;;;;4972241;28;20026;-77
2023/11/14 07:06:59;;;;;;;17.00;13.38;;;7.30;99.90;;;;;;5038437;28;20022;-76
2023/11/14 07:09:25;;;;;;;21.15;16.23;;;7.40;99.90;;;;;;5038522;28;20116;-77
2023/11/14 07:11:53;;;;;;;18.55;13.65;;;7.40;99.90;;;;;;5036948;28;20570;-76
2023/11/14 07:14:21;;;;;;;15.70;12.73;;;7.40;99.90;;;;;;4969646;28;20023;-77
2023/11/14 07:16:47;;;;;;;14.50;10.00;;;7.40;99.90;;;;;;4969722;28;20027;-84
2023/11/14 07:19:13;;;;;;;18.52;11.98;;;7.40;99.90;;;;;;4968869;28;20049;-83
2023/11/14 07:21:39;;;;;;;16.33;11.80;;;7.50;99.90;;;;;;4969511;28;20065;-77
2023/11/14 07:24:05;;;;;;;14.05;11.10;;;7.50;99.90;;;;;;5035829;28;20027;-77
2023/11/14 07:26:30;;;;;;;14.10;10.77;;;7.50;99.90;;;;;;5036983;28;20027;-76
2023/11/14 07:28:56;;;;;;;17.75;11.00;;;7.50;99.90;;;;;;4969046;28;20019;-76
2023/11/14 07:31:22;;;;;;;18.25;11.32;;;7.50;99.90;;;;;;5034085;28;20031;-76
2023/11/14 07:33:48;;;;;;;17.75;10.40;;;7.50;99.90;;;;;;5035618;28;20031;-76
2023/11/14 07:36:13;;;;;;;16.02;10.18;;;7.60;99.90;;;;;;5035503;28;20469;-76
2023/11/14 07:38:39;;;;;;;16.10;11.18;;;7.60;99.90;;;;;;5032802;28;20070;-82
2023/11/14 07:41:10;;;;;;;18.13;10.00;;;7.60;99.90;;;;;;4968896;28;20042;-81
2023/11/14 07:43:37;;;;;;;16.38;10.55;;;7.60;99.90;;;;;;4970965;28;20102;-76
2023/11/14 07:46:03;;;;;;;15.07;11.30;;;7.70;99.90;;;;;;5036659;28;20031;-75
2023/11/14 07:48:30;;;;;;;12.65;9.40;;;7.70;99.90;;;;;;4970860;28;20073;-76
2023/11/14 07:50:56;;;;;;;16.88;10.85;;;7.70;99.90;;;;;;5036713;28;20022;-77
2023/11/14 07:53:21;;;;;;;14.40;10.50;;;7.70;99.90;;;;;;5036760;28;20369;-77
2023/11/14 07:55:47;;;;;;;16.30;11.73;;;7.80;99.90;;;;;;5037108;28;20018;-77
2023/11/14 07:58:13;;;;;;;18.02;11.88;;;7.80;99.90;;;;;;5037246;28;20388;-77
2023/11/14 08:00:38;;;;;;;35.25;21.60;;;7.90;99.90;;;;;;4970597;28;20480;-77
2023/11/14 08:03:04;;;;;;;125.18;59.22;;;7.90;99.90;;;;;;5037072;28;20054;-84
2023/11/14 08:05:32;;;;;;;112.10;60.95;;;8.00;99.90;;;;;;4970385;28;20026;-81
2023/11/14 08:07:58;;;;;;;69.72;41.22;;;8.00;99.90;;;;;;4970344;28;20160;-81
2023/11/14 08:10:24;;;;;;;119.68;70.63;;;8.10;99.90;;;;;;4970695;28;20058;-76
2023/11/14 08:12:49;;;;;;;110.13;64.97;;;8.20;99.90;;;;;;5037457;28;20487;-76
2023/11/14 08:15:16;;;;;;;48.75;20.13;;;8.20;99.90;;;;;;5037208;28;20030;-82
2023/11/14 08:17:42;;;;;;;40.35;15.43;;;8.30;99.90;;;;;;5035671;28;20484;-81
2023/11/14 08:20:10;;;;;;;33.78;14.95;;;8.40;99.90;;;;;;5036945;28;20031;-81
2023/11/14 08:22:35;;;;;;;33.75;20.17;;;8.40;99.90;;;;;;4970161;28;20094;-81
2023/11/14 08:25:01;;;;;;;45.63;22.15;;;8.40;99.90;;;;;;5036471;28;20138;-77
2023/11/14 08:27:30;;;;;;;41.08;17.52;;;8.50;99.90;;;;;;4971065;28;20023;-76
2023/11/14 08:29:56;;;;;;;23.48;8.82;;;8.50;99.90;;;;;;5036852;28;20050;-81
2023/11/14 08:32:23;;;;;;;16.20;7.18;;;8.60;99.90;;;;;;5037477;28;20027;-83
2023/11/14 08:34:49;;;;;;;22.98;12.00;;;8.60;99.90;;;;;;5036251;28;20027;-82
2023/11/14 08:37:15;;;;;;;26.55;11.82;;;8.70;99.90;;;;;;5033902;28;20027;-77
2023/11/14 08:39:40;;;;;;;22.45;10.00;;;8.80;99.90;;;;;;4984374;28;20027;-82
2023/11/14 08:42:11;;;;;;;19.55;7.25;;;8.80;99.90;;;;;;5000681;28;20046;-83
2023/11/14 08:44:38;;;;;;;17.60;8.02;;;8.90;99.90;;;;;;5035136;28;20023;-81
2023/11/14 08:47:04;;;;;;;18.33;11.05;;;9.00;99.90;;;;;;5035971;28;20034;-81
2023/11/14 08:49:30;;;;;;;28.73;12.50;;;9.10;99.90;;;;;;4969388;28;20106;-82
2023/11/14 08:51:55;;;;;;;18.67;7.38;;;9.20;99.90;;;;;;5009608;28;20539;-81
2023/11/14 08:54:21;;;;;;;12.93;6.30;;;9.20;99.90;;;;;;4969776;28;20068;-81
2023/11/14 08:56:47;;;;;;;11.82;6.82;;;9.20;99.90;;;;;;4969799;28;20047;-82
2023/11/14 08:59:15;;;;;;;15.25;8.45;;;9.30;99.90;;;;;;4968313;28;20051;-83
2023/11/14 09:01:41;;;;;;;14.27;8.15;;;9.30;99.90;;;;;;5029395;28;20051;-83
2023/11/14 09:04:10;;;;;;;14.18;6.00;;;9.40;99.90;;;;;;4969107;28;20027;-82
2023/11/14 09:06:36;;;;;;;14.90;7.03;;;9.50;99.90;;;;;;4972652;28;20031;-83
2023/11/14 09:09:02;;;;;;;9.95;5.50;;;9.50;99.90;;;;;;4972860;28;20058;-82
2023/11/14 09:11:27;;;;;;;10.45;4.55;;;9.50;99.90;;;;;;5043700;28;20453;-83
2023/11/14 09:13:56;;;;;;;12.00;4.72;;;9.50;99.90;;;;;;4975774;28;20027;-84
2023/11/14 09:16:23;;;;;;;9.52;4.88;;;9.60;99.90;;;;;;5042622;28;20040;-82
2023/11/14 09:18:49;;;;;;;13.90;6.55;;;9.60;99.90;;;;;;5044125;28;20030;-84
2023/11/14 09:21:14;;;;;;;8.13;4.28;;;9.60;99.90;;;;;;5042069;28;20385;-83
2023/11/14 09:23:40;;;;;;;6.38;3.42;;;9.70;99.90;;;;;;5040531;28;20110;-83
2023/11/14 09:26:07;;;;;;;8.93;4.20;;;9.80;99.90;;;;;;4994489;28;20027;-83
2023/11/14 09:28:36;;;;;;;7.70;3.42;;;9.80;99.90;;;;;;5040338;28;20072;-83
2023/11/14 09:31:04;;;;;;;10.60;5.30;;;9.90;99.90;;;;;;4973036;28;20023;-83
2023/11/14 09:33:32;;;;;;;9.10;5.22;;;9.90;99.90;;;;;;4972858;28;20027;-83
2023/11/14 09:35:58;;;;;;;13.80;5.88;;;10.00;99.90;;;;;;4972389;28;20026;-83
2023/11/14 09:38:24;;;;;;;11.20;5.53;;;10.00;99.90;;;;;;5040290;28;20019;-83
2023/11/14 09:40:50;;;;;;;15.40;5.82;;;10.00;99.90;;;;;;4972748;28;20050;-83
2023/11/14 09:43:22;;;;;;;10.93;4.35;;;10.10;99.90;;;;;;4973084;28;20097;-83
2023/11/14 09:45:50;;;;;;;25.58;7.43;;;10.00;99.90;;;;;;5039537;28;20030;-83
2023/11/14 09:48:16;;;;;;;12.23;4.97;;;10.10;99.90;;;;;;5040042;28;20376;-83
2023/11/14 09:50:43;;;;;;;15.73;6.32;;;10.10;99.90;;;;;;4972396;28;20019;-83
2023/11/14 09:53:09;;;;;;;16.30;6.25;;;10.10;99.90;;;;;;5028303;28;20015;-83
2023/11/14 09:55:35;;;;;;;11.63;4.65;;;10.10;99.90;;;;;;5039014;28;20447;-83
2023/11/14 09:58:01;;;;;;;18.88;6.78;;;10.10;99.90;;;;;;5039754;28;20054;-83
2023/11/14 10:00:30;;;;;;;16.77;6.03;;;10.10;99.90;;;;;;4972253;28;20039;-84
2023/11/14 10:02:57;;;;;;;8.77;4.22;;;10.10;99.90;;;;;;4981443;28;20069;-83
2023/11/14 10:05:22;;;;;;;6.88;3.78;;;10.10;99.90;;;;;;4991932;28;20030;-83
2023/11/14 10:07:53;;;;;;;10.05;4.72;;;10.20;99.90;;;;;;4972689;28;20019;-83
2023/11/14 10:10:19;;;;;;;7.20;4.00;;;10.20;99.90;;;;;;5039422;28;20534;-82
2023/11/14 10:12:45;;;;;;;4.95;3.38;;;10.20;99.90;;;;;;4972664;28;20030;-82
2023/11/14 10:15:10;;;;;;;4.63;2.78;;;10.20;99.90;;;;;;4971470;28;20027;-83
2023/11/14 10:17:41;;;;;;;12.93;4.53;;;10.20;99.90;;;;;;4972425;28;20027;-83
2023/11/14 10:20:07;;;;;;;6.85;2.22;;;10.20;99.90;;;;;;5039254;28;20404;-83
2023/11/14 10:22:34;;;;;;;5.68;2.30;;;10.20;99.90;;;;;;5039204;28;20110;-83
2023/11/14 10:25:01;;;;;;;4.50;2.58;;;10.20;99.90;;;;;;4971366;28;20209;-82
2023/11/14 10:27:36;;;;;;;4.63;2.25;;;10.20;99.90;;;;;;4971412;28;20031;-82
2023/11/14 10:30:02;;;;;;;5.93;2.53;;;10.30;99.90;;;;;;5039043;28;20011;-83
2023/11/14 10:32:27;;;;;;;5.90;2.88;;;10.30;99.90;;;;;;5039133;28;20030;-82
2023/11/14 10:34:53;;;;;;;3.65;2.25;;;10.40;99.90;;;;;;5038453;28;20381;-82
2023/11/14 10:37:33;;;;;;;9.23;2.92;;;10.50;99.90;;;;;;5038969;28;20019;-82
2023/11/14 10:40:01;;;;;;;4.22;2.08;;;10.50;99.90;;;;;;5026757;28;20056;-82
2023/11/14 10:42:28;;;;;;;9.90;2.30;;;10.60;99.90;;;;;;4971752;28;20042;-83
2023/11/14 10:45:04;;;;;;;5.13;2.38;;;10.70;99.90;;;;;;4971238;28;20114;-83
2023/11/14 10:47:37;;;;;;;5.95;2.72;;;10.90;99.90;;;;;;5038457;28;20113;-83
2023/11/14 10:50:04;;;;;;;4.95;2.25;;;11.10;99.90;;;;;;5038570;28;20027;-77
2023/11/14 10:52:33;;;;;;;5.63;2.20;;;11.00;99.90;;;;;;4971869;28;20072;-83
2023/11/14 10:55:01;;;;;;;6.00;2.03;;;11.00;99.90;;;;;;4970764;28;20054;-82
2023/11/14 10:57:27;;;;;;;10.90;2.10;;;11.20;99.90;;;;;;4970434;28;20038;-81
2023/11/14 10:59:56;;;;;;;6.85;2.67;;;11.10;99.90;;;;;;5038528;28;20091;-76
2023/11/14 11:02:23;;;;;;;6.97;2.50;;;11.20;99.90;;;;;;4970266;28;20050;-81
2023/11/14 11:04:50;;;;;;;8.07;1.90;;;11.10;99.90;;;;;;4974209;28;20062;-82
2023/11/14 11:07:15;;;;;;;8.30;2.38;;;11.10;99.90;;;;;;4970781;28;20041;-83
2023/11/14 11:09:41;;;;;;;6.95;2.20;;;10.90;98.90;;;;;;4971658;28;20027;-83
2023/11/14 11:12:09;;;;;;;5.63;2.00;;;10.90;98.60;;;;;;4968522;28;20031;-85
2023/11/14 11:14:35;;;;;;;7.38;2.45;;;10.80;99.90;;;;;;5030736;28;20028;-81
2023/11/14 11:17:03;;;;;;;5.32;2.08;;;10.80;99.90;;;;;;5035687;28;20035;-82
2023/11/14 11:19:29;;;;;;;3.53;2.35;;;10.80;99.90;;;;;;4969563;28;20092;-81
2023/11/14 11:22:03;;;;;;;4.88;2.20;;;10.70;99.90;;;;;;5038910;28;20049;-81
2023/11/14 11:24:29;;;;;;;6.50;1.95;;;10.70;99.90;;;;;;5030077;28;20088;-82
2023/11/14 11:27:25;;;;;;;7.95;2.33;;;10.60;99.90;;;;;;4964575;28;20023;-81
2023/11/14 11:29:59;;;;;;;6.50;2.25;;;10.50;99.90;;;;;;4969611;28;20131;-83
2023/11/14 11:32:34;;;;;;;5.93;2.47;;;10.50;99.90;;;;;;5036480;28;20027;-82
2023/11/14 11:35:21;;;;;;;6.15;2.40;;;10.50;99.90;;;;;;5036523;28;20503;-83
2023/11/14 11:37:55;;;;;;;8.73;3.10;;;10.50;99.90;;;;;;4969783;28;20357;-82
2023/11/14 11:40:32;;;;;;;7.20;2.45;;;10.50;99.90;;;;;;4969323;28;20047;-82
2023/11/14 11:43:09;;;;;;;29.17;11.02;;;10.50;99.90;;;;;;5036409;28;20034;-82
2023/11/14 11:45:41;;;;;;;115.53;54.28;;;10.40;99.90;;;;;;4970372;28;20049;-83
2023/11/14 11:48:31;;;;;;;453.38;203.93;;;10.30;99.90;;;;;;4968689;28;20031;-83
2023/11/14 11:51:17;;;;;;;501.40;215.07;;;10.20;99.90;;;;;;5036092;28;20118;-83
2023/11/14 11:53:43;;;;;;;134.60;44.78;;;10.10;99.90;;;;;;4970499;28;20027;-83
2023/11/14 11:56:12;;;;;;;29.73;8.40;;;10.00;99.90;;;;;;5034927;28;20365;-81
2023/11/14 11:58:48;;;;;;;63.67;18.55;;;10.10;99.90;;;;;;5035102;28;20055;-83
2023/11/14 12:01:15;;;;;;;130.05;52.85;;;10.00;99.90;;;;;;4967367;28;20500;-82
2023/11/14 12:03:42;;;;;;;546.47;227.10;;;10.10;99.90;;;;;;4969560;28;20427;-83
2023/11/14 12:06:09;;;;;;;138.50;36.75;;;10.10;99.90;;;;;;4981639;28;20043;-83
2023/11/14 12:08:39;;;;;;;76.03;23.60;;;10.10;99.90;;;;;;4978708;28;20114;-83
2023/11/14 12:11:06;;;;;;;50.00;14.23;;;10.10;99.90;;;;;;4969066;28;20073;-83
2023/11/14 12:13:31;;;;;;;72.68;21.75;;;10.10;99.90;;;;;;4968359;28;20113;-83
2023/11/14 12:15:57;;;;;;;383.63;151.38;;;10.10;99.90;;;;;;5035193;28;20130;-83
2023/11/14 12:18:23;;;;;;;120.85;37.45;;;10.10;99.90;;;;;;4968753;28;20051;-82
2023/11/14 12:20:50;;;;;;;25.23;7.53;;;10.10;99.90;;;;;;4967145;28;20456;-82
2023/11/14 12:23:16;;;;;;;89.60;23.10;;;10.00;99.90;;;;;;4969375;28;20381;-82
2023/11/14 12:25:42;;;;;;;51.03;14.60;;;10.00;99.90;;;;;;4969440;28;20043;-82
2023/11/14 12:28:07;;;;;;;27.92;8.50;;;10.00;99.90;;;;;;5035405;28;20027;-82
2023/11/14 12:30:34;;;;;;;69.22;19.25;;;10.00;99.90;;;;;;4967960;28;20540;-82
2023/11/14 12:33:07;;;;;;;109.70;44.08;;;10.00;99.90;;;;;;5029510;28;20084;-81
2023/11/14 12:35:50;;;;;;;159.23;55.88;;;10.00;99.90;;;;;;4969158;28;20096;-82
2023/11/14 12:38:34;;;;;;;70.10;19.25;;;10.10;99.90;;;;;;4969242;28;20042;-82